sensor_id;sensor_type;location;lat;lon;timestamp;pressure;altitude;pressure_sealevel;temperature;humidity
34931;BME280;21134;49.646;8.560;2023-08-24T00:00:57;100583.59;;;19.80;84.06
34931;BME280;21134;49.646;8.560;2023-08-24T00:03:23;100570.94;;;19.71;83.85
34931;BME280;21134;49.646;8.560;2023-08-24T00:05:50;100567.59;;;19.69;83.33
34931;BME280;21134;49.646;8.560;2023-08-24T00:08:16;100569.16;;;19.73;83.29
34931;BME280;21134;49.646;8.560;2023-08-24T00:10:43;100572.47;;;19.77;83.56
34931;BME280;21134;49.646;8.560;2023-08-24T00:13:11;100574.03;;;19.81;83.27
34931;BME280;21134;49.646;8.560;2023-08-24T00:15:38;100571.69;;;19.74;83.32
34931;BME280;21134;49.646;8.560;2023-08-24T00:18:06;100568.34;;;19.71;83.63
34931;BME280;21134;49.646;8.560;2023-08-24T00:20:33;100560.56;;;19.71;83.51
34931;BME280;21134;49.646;8.560;2023-08-24T00:23:00;100558.75;;;19.73;83.75
34931;BME280;21134;49.646;8.560;2023-08-24T00:25:27;100565.81;;;19.69;84.18
34931;BME280;21134;49.646;8.560;2023-08-24T00:27:53;100558.81;;;19.71;83.70
34931;BME280;21134;49.646;8.560;2023-08-24T00:30:20;100553.69;;;19.70;83.73
34931;BME280;21134;49.646;8.560;2023-08-24T00:32:46;100553.72;;;19.68;84.23
34931;BME280;21134;49.646;8.560;2023-08-24T00:35:14;100551.22;;;19.67;83.91
34931;BME280;21134;49.646;8.560;2023-08-24T00:37:41;100548.63;;;19.67;83.47
34931;BME280;21134;49.646;8.560;2023-08-24T00:40:08;100545.94;;;19.68;83.49
34931;BME280;21134;49.646;8.560;2023-08-24T00:42:37;100547.91;;;19.62;83.24
34931;BME280;21134;49.646;8.560;2023-08-24T00:45:04;100556.94;;;19.51;83.46
34931;BME280;21134;49.646;8.560;2023-08-24T00:47:31;100563.16;;;19.47;84.24
34931;BME280;21134;49.646;8.560;2023-08-24T00:49:59;100568.84;;;19.34;84.50
34931;BME280;21134;49.646;8.560;2023-08-24T00:52:29;100579.69;;;19.20;85.12
34931;BME280;21134;49.646;8.560;2023-08-24T00:54:57;100580.75;;;19.14;85.15
34931;BME280;21134;49.646;8.560;2023-08-24T00:57:25;100582.47;;;19.15;85.62
34931;BME280;21134;49.646;8.560;2023-08-24T00:59:52;100582.47;;;19.15;85.63
34931;BME280;21134;49.646;8.560;2023-08-24T01:02:19;100587.47;;;19.20;85.77
34931;BME280;21134;49.646;8.560;2023-08-24T01:04:46;100582.06;;;19.26;85.43
34931;BME280;21134;49.646;8.560;2023-08-24T01:07:14;100582.66;;;19.34;85.33
34931;BME280;21134;49.646;8.560;2023-08-24T01:09:43;100581.63;;;19.38;85.06
34931;BME280;21134;49.646;8.560;2023-08-24T01:12:18;100586.03;;;19.36;85.24
34931;BME280;21134;49.646;8.560;2023-08-24T01:14:50;100576.75;;;19.31;85.51
34931;BME280;21134;49.646;8.560;2023-08-24T01:17:21;100574.19;;;19.29;85.95
34931;BME280;21134;49.646;8.560;2023-08-24T01:19:48;100581.94;;;19.31;85.97
34931;BME280;21134;49.646;8.560;2023-08-24T01:22:31;100580.84;;;19.36;85.84
34931;BME280;21134;49.646;8.560;2023-08-24T01:25:06;100577.25;;;19.40;85.38
34931;BME280;21134;49.646;8.560;2023-08-24T01:27:38;100579.84;;;19.40;85.56
34931;BME280;21134;49.646;8.560;2023-08-24T01:30:07;100579.84;;;19.40;85.35
34931;BME280;21134;49.646;8.560;2023-08-24T01:32:35;100575.59;;;19.38;85.66
34931;BME280;21134;49.646;8.560;2023-08-24T01:35:03;100578.22;;;19.38;85.64
34931;BME280;21134;49.646;8.560;2023-08-24T01:37:30;100588.63;;;19.36;85.77
34931;BME280;21134;49.646;8.560;2023-08-24T01:40:02;100588.69;;;19.35;85.76
34931;BME280;21134;49.646;8.560;2023-08-24T01:42:35;100582.59;;;19.36;85.70
34931;BME280;21134;49.646;8.560;2023-08-24T01:45:06;100583.50;;;19.35;85.47
34931;BME280;21134;49.646;8.560;2023-08-24T01:47:35;100588.09;;;19.26;86.02
34931;BME280;21134;49.646;8.560;2023-08-24T01:50:03;100573.63;;;19.21;86.41
34931;BME280;21134;49.646;8.560;2023-08-24T01:52:31;100578.22;;;19.13;87.26
34931;BME280;21134;49.646;8.560;2023-08-24T01:54:58;100569.75;;;19.08;87.14
34931;BME280;21134;49.646;8.560;2023-08-24T01:57:25;100569.97;;;19.01;87.13
34931;BME280;21134;49.646;8.560;2023-08-24T01:59:51;100560.88;;;18.90;87.61
34931;BME280;21134;49.646;8.560;2023-08-24T02:02:20;100557.78;;;18.78;87.63
34931;BME280;21134;49.646;8.560;2023-08-24T02:04:47;100559.50;;;18.79;87.60
34931;BME280;21134;49.646;8.560;2023-08-24T02:07:13;100553.63;;;18.74;88.25
34931;BME280;21134;49.646;8.560;2023-08-24T02:09:40;100557.19;;;18.70;88.57
34931;BME280;21134;49.646;8.560;2023-08-24T02:12:07;100553.03;;;18.65;89.14
34931;BME280;21134;49.646;8.560;2023-08-24T02:14:33;100546.19;;;18.64;89.18
34931;BME280;21134;49.646;8.560;2023-08-24T02:17:00;100539.19;;;18.66;88.87
34931;BME280;21134;49.646;8.560;2023-08-24T02:19:27;100542.56;;;18.68;89.14
34931;BME280;21134;49.646;8.560;2023-08-24T02:21:54;100546.00;;;18.68;89.03
34931;BME280;21134;49.646;8.560;2023-08-24T02:24:21;100533.16;;;18.65;88.96
34931;BME280;21134;49.646;8.560;2023-08-24T02:26:47;100534.81;;;18.68;88.77
34931;BME280;21134;49.646;8.560;2023-08-24T02:29:13;100536.56;;;18.67;88.67
34931;BME280;21134;49.646;8.560;2023-08-24T02:31:40;100535.72;;;18.67;88.48
34931;BME280;21134;49.646;8.560;2023-08-24T02:34:06;100538.88;;;18.76;88.97
34931;BME280;21134;49.646;8.560;2023-08-24T02:36:34;100539.81;;;18.74;89.01
34931;BME280;21134;49.646;8.560;2023-08-24T02:39:01;100536.31;;;18.75;88.47
34931;BME280;21134;49.646;8.560;2023-08-24T02:41:27;100524.16;;;18.77;88.80
34931;BME280;21134;49.646;8.560;2023-08-24T02:43:54;100523.25;;;18.78;88.14
34931;BME280;21134;49.646;8.560;2023-08-24T02:46:21;100525.69;;;18.83;87.95
34931;BME280;21134;49.646;8.560;2023-08-24T02:48:48;100521.28;;;18.85;87.51
34931;BME280;21134;49.646;8.560;2023-08-24T02:51:14;100527.53;;;18.79;87.74
34931;BME280;21134;49.646;8.560;2023-08-24T02:53:42;100526.78;;;18.75;87.89
34931;BME280;21134;49.646;8.560;2023-08-24T02:56:09;100532.78;;;18.77;87.96
34931;BME280;21134;49.646;8.560;2023-08-24T02:58:35;100530.06;;;18.80;87.52
34931;BME280;21134;49.646;8.560;2023-08-24T03:01:04;100515.72;;;18.70;87.03
34931;BME280;21134;49.646;8.560;2023-08-24T03:03:31;100531.03;;;18.78;87.38
34931;BME280;21134;49.646;8.560;2023-08-24T03:05:59;100534.56;;;18.75;87.54
34931;BME280;21134;49.646;8.560;2023-08-24T03:08:26;100532.78;;;18.77;87.94
34931;BME280;21134;49.646;8.560;2023-08-24T03:10:54;100533.56;;;18.79;87.84
34931;BME280;21134;49.646;8.560;2023-08-24T03:13:20;100526.56;;;18.81;87.19
34931;BME280;21134;49.646;8.560;2023-08-24T03:15:47;100538.88;;;18.76;87.03
34931;BME280;21134;49.646;8.560;2023-08-24T03:18:15;100524.81;;;18.82;86.85
34931;BME280;21134;49.646;8.560;2023-08-24T03:20:43;100521.13;;;18.89;86.72
34931;BME280;21134;49.646;8.560;2023-08-24T03:23:11;100513.00;;;18.98;86.43
34931;BME280;21134;49.646;8.560;2023-08-24T03:25:39;100487.66;;;19.07;86.19
34931;BME280;21134;49.646;8.560;2023-08-24T03:28:09;100456.13;;;19.17;86.43
34931;BME280;21134;49.646;8.560;2023-08-24T03:30:37;100441.19;;;19.24;86.73
34931;BME280;21134;49.646;8.560;2023-08-24T03:33:04;100426.25;;;19.31;87.40
34931;BME280;21134;49.646;8.560;2023-08-24T03:35:31;100429.28;;;19.42;87.55
34931;BME280;21134;49.646;8.560;2023-08-24T03:37:58;100425.75;;;19.43;89.04
34931;BME280;21134;49.646;8.560;2023-08-24T03:40:25;100417.75;;;19.49;88.13
34931;BME280;21134;49.646;8.560;2023-08-24T03:42:52;100424.88;;;19.44;88.60
34931;BME280;21134;49.646;8.560;2023-08-24T03:45:20;100429.28;;;19.42;89.02
34931;BME280;21134;49.646;8.560;2023-08-24T03:47:47;100423.41;;;19.37;88.76
34931;BME280;21134;49.646;8.560;2023-08-24T03:50:13;100431.59;;;19.26;89.11
34931;BME280;21134;49.646;8.560;2023-08-24T03:52:40;100430.03;;;19.22;89.27
34931;BME280;21134;49.646;8.560;2023-08-24T03:55:07;100435.44;;;19.16;90.42
34931;BME280;21134;49.646;8.560;2023-08-24T03:57:34;100423.66;;;19.07;90.48
34931;BME280;21134;49.646;8.560;2023-08-24T04:00:00;100426.09;;;19.12;90.65
34931;BME280;21134;49.646;8.560;2023-08-24T04:02:30;100417.41;;;19.13;90.79
34931;BME280;21134;49.646;8.560;2023-08-24T04:04:57;100422.47;;;19.16;90.88
34931;BME280;21134;49.646;8.560;2023-08-24T04:07:23;100423.50;;;19.12;90.86
34931;BME280;21134;49.646;8.560;2023-08-24T04:09:50;100422.63;;;19.11;90.49
34931;BME280;21134;49.646;8.560;2023-08-24T04:12:16;100412.41;;;19.08;90.87
34931;BME280;21134;49.646;8.560;2023-08-24T04:14:43;100420.34;;;19.03;91.02
34931;BME280;21134;49.646;8.560;2023-08-24T04:17:09;100420.19;;;19.08;90.47
34931;BME280;21134;49.646;8.560;2023-08-24T04:19:38;100432.78;;;19.17;90.33
34931;BME280;21134;49.646;8.560;2023-08-24T04:22:05;100439.19;;;19.09;90.51
34931;BME280;21134;49.646;8.560;2023-08-24T04:24:31;100439.28;;;19.05;90.92
34931;BME280;21134;49.646;8.560;2023-08-24T04:26:58;100439.22;;;19.07;90.89
34931;BME280;21134;49.646;8.560;2023-08-24T04:29:24;100440.94;;;19.08;90.46
34931;BME280;21134;49.646;8.560;2023-08-24T04:31:51;100438.38;;;19.07;90.25
34931;BME280;21134;49.646;8.560;2023-08-24T04:34:17;100439.22;;;19.07;89.47
34931;BME280;21134;49.646;8.560;2023-08-24T04:36:45;100440.19;;;19.04;88.85
34931;BME280;21134;49.646;8.560;2023-08-24T04:39:11;100441.78;;;19.09;88.78
34931;BME280;21134;49.646;8.560;2023-08-24T04:41:38;100438.19;;;19.11;89.30
34931;BME280;21134;49.646;8.560;2023-08-24T04:44:05;100444.25;;;19.12;88.75
34931;BME280;21134;49.646;8.560;2023-08-24T04:46:33;100449.34;;;19.15;88.38
34931;BME280;21134;49.646;8.560;2023-08-24T04:49:00;100443.97;;;19.19;88.34
34931;BME280;21134;49.646;8.560;2023-08-24T04:51:26;100436.25;;;19.18;88.46
34931;BME280;21134;49.646;8.560;2023-08-24T04:53:55;100440.66;;;19.16;88.84
34931;BME280;21134;49.646;8.560;2023-08-24T04:56:22;100446.84;;;19.12;89.44
34931;BME280;21134;49.646;8.560;2023-08-24T04:58:54;100446.06;;;19.10;89.41
34931;BME280;21134;49.646;8.560;2023-08-24T05:01:22;100439.00;;;19.13;89.02
34931;BME280;21134;49.646;8.560;2023-08-24T05:03:50;100441.31;;;19.21;89.18
34931;BME280;21134;49.646;8.560;2023-08-24T05:06:16;100443.78;;;19.24;89.32
34931;BME280;21134;49.646;8.560;2023-08-24T05:08:43;100445.66;;;19.20;89.61
34931;BME280;21134;49.646;8.560;2023-08-24T05:11:16;100451.44;;;19.27;89.44
34931;BME280;21134;49.646;8.560;2023-08-24T05:13:43;100460.81;;;19.31;89.31
34931;BME280;21134;49.646;8.560;2023-08-24T05:16:10;100475.44;;;19.34;89.22
34931;BME280;21134;49.646;8.560;2023-08-24T05:18:36;100491.06;;;19.32;89.06
34931;BME280;21134;49.646;8.560;2023-08-24T05:21:03;100511.91;;;19.29;89.18
34931;BME280;21134;49.646;8.560;2023-08-24T05:23:29;100531.38;;;19.41;87.74
34931;BME280;21134;49.646;8.560;2023-08-24T05:25:56;100540.78;;;19.20;89.23
34931;BME280;21134;49.646;8.560;2023-08-24T05:28:24;100559.84;;;19.19;89.82
34931;BME280;21134;49.646;8.560;2023-08-24T05:30:51;100580.09;;;19.33;89.10
34931;BME280;21134;49.646;8.560;2023-08-24T05:33:17;100597.44;;;19.32;89.62
34931;BME280;21134;49.646;8.560;2023-08-24T05:35:44;100591.28;;;19.35;90.05
34931;BME280;21134;49.646;8.560;2023-08-24T05:38:10;100611.25;;;19.33;90.38
34931;BME280;21134;49.646;8.560;2023-08-24T05:40:36;100620.78;;;19.32;91.23
34931;BME280;21134;49.646;8.560;2023-08-24T05:43:04;100628.59;;;19.56;89.78
34931;BME280;21134;49.646;8.560;2023-08-24T05:45:32;100634.97;;;19.47;90.60
34931;BME280;21134;49.646;8.560;2023-08-24T05:47:58;100634.75;;;19.53;90.78
34931;BME280;21134;49.646;8.560;2023-08-24T05:50:24;100644.91;;;19.59;91.16
34931;BME280;21134;49.646;8.560;2023-08-24T05:52:51;100643.38;;;19.79;89.67
34931;BME280;21134;49.646;8.560;2023-08-24T05:55:18;100633.72;;;19.82;89.80
34931;BME280;21134;49.646;8.560;2023-08-24T05:57:44;100633.31;;;19.93;89.02
34931;BME280;21134;49.646;8.560;2023-08-24T06:00:11;100621.56;;;20.06;88.39
34931;BME280;21134;49.646;8.560;2023-08-24T06:02:40;100609.50;;;20.27;86.50
34931;BME280;21134;49.646;8.560;2023-08-24T06:05:07;100602.63;;;20.26;86.53
34931;BME280;21134;49.646;8.560;2023-08-24T06:07:34;100596.75;;;20.21;86.35
34931;BME280;21134;49.646;8.560;2023-08-24T06:10:01;100593.09;;;20.25;86.59
34931;BME280;21134;49.646;8.560;2023-08-24T06:12:28;100579.59;;;20.17;86.27
34931;BME280;21134;49.646;8.560;2023-08-24T06:14:54;100570.56;;;20.04;87.44
34931;BME280;21134;49.646;8.560;2023-08-24T06:17:21;100559.75;;;20.14;87.52
34931;BME280;21134;49.646;8.560;2023-08-24T06:19:49;100559.56;;;20.19;87.96
34931;BME280;21134;49.646;8.560;2023-08-24T06:22:15;100564.72;;;20.20;87.59
34931;BME280;21134;49.646;8.560;2023-08-24T06:24:41;100569.66;;;20.05;88.38
34931;BME280;21134;49.646;8.560;2023-08-24T06:27:08;100560.25;;;20.02;88.89
34931;BME280;21134;49.646;8.560;2023-08-24T06:29:34;100553.59;;;20.17;88.25
34931;BME280;21134;49.646;8.560;2023-08-24T06:32:01;100545.84;;;20.37;86.87
34931;BME280;21134;49.646;8.560;2023-08-24T06:34:27;100528.63;;;20.35;86.60
34931;BME280;21134;49.646;8.560;2023-08-24T06:36:55;100524.53;;;20.50;85.68
34931;BME280;21134;49.646;8.560;2023-08-24T06:39:26;100517.00;;;20.43;86.18
34931;BME280;21134;49.646;8.560;2023-08-24T06:41:53;100505.94;;;20.38;86.43
34931;BME280;21134;49.646;8.560;2023-08-24T06:44:19;100511.84;;;20.42;86.50
34931;BME280;21134;49.646;8.560;2023-08-24T06:46:46;100499.09;;;20.58;86.09
34931;BME280;21134;49.646;8.560;2023-08-24T06:49:12;100506.59;;;20.65;85.32
34931;BME280;21134;49.646;8.560;2023-08-24T06:51:39;100503.28;;;20.62;85.60
34931;BME280;21134;49.646;8.560;2023-08-24T06:54:07;100503.00;;;20.68;84.76
34931;BME280;21134;49.646;8.560;2023-08-24T06:56:34;100510.34;;;20.79;84.58
34931;BME280;21134;49.646;8.560;2023-08-24T06:59:00;100503.78;;;20.90;84.26
34931;BME280;21134;49.646;8.560;2023-08-24T07:01:27;100494.25;;;21.10;82.89
34931;BME280;21134;49.646;8.560;2023-08-24T07:03:53;100486.78;;;21.21;82.42
34931;BME280;21134;49.646;8.560;2023-08-24T07:06:19;100492.41;;;21.31;82.00
34931;BME280;21134;49.646;8.560;2023-08-24T07:08:46;100494.44;;;21.45;81.06
34931;BME280;21134;49.646;8.560;2023-08-24T07:11:14;100489.66;;;21.54;80.75
34931;BME280;21134;49.646;8.560;2023-08-24T07:13:41;100485.88;;;21.60;80.23
34931;BME280;21134;49.646;8.560;2023-08-24T07:16:07;100490.31;;;21.77;79.39
34931;BME280;21134;49.646;8.560;2023-08-24T07:18:34;100478.44;;;21.89;78.63
34931;BME280;21134;49.646;8.560;2023-08-24T07:21:00;100485.81;;;21.98;78.12
34931;BME280;21134;49.646;8.560;2023-08-24T07:23:27;100485.81;;;22.17;77.67
34931;BME280;21134;49.646;8.560;2023-08-24T07:25:53;100491.72;;;22.38;77.10
34931;BME280;21134;49.646;8.560;2023-08-24T07:28:21;100485.03;;;22.67;75.63
34931;BME280;21134;49.646;8.560;2023-08-24T07:30:48;100485.09;;;22.83;74.73
34931;BME280;21134;49.646;8.560;2023-08-24T07:33:14;100487.63;;;23.17;73.54
34931;BME280;21134;49.646;8.560;2023-08-24T07:35:40;100489.16;;;23.37;73.29
34931;BME280;21134;49.646;8.560;2023-08-24T07:38:07;100501.13;;;23.57;72.44
34931;BME280;21134;49.646;8.560;2023-08-24T07:40:33;100513.84;;;23.63;71.95
34931;BME280;21134;49.646;8.560;2023-08-24T07:43:00;100516.84;;;23.73;71.33
34931;BME280;21134;49.646;8.560;2023-08-24T07:45:28;100524.00;;;23.85;70.39
34931;BME280;21134;49.646;8.560;2023-08-24T07:47:54;100521.31;;;23.87;71.07
34931;BME280;21134;49.646;8.560;2023-08-24T07:50:21;100530.97;;;24.01;70.69
34931;BME280;21134;49.646;8.560;2023-08-24T07:52:48;100538.03;;;24.14;70.71
34931;BME280;21134;49.646;8.560;2023-08-24T07:55:15;100531.75;;;24.33;71.56
34931;BME280;21134;49.646;8.560;2023-08-24T07:57:41;100526.34;;;24.36;70.15
34931;BME280;21134;49.646;8.560;2023-08-24T08:00:08;100528.78;;;24.39;69.88
34931;BME280;21134;49.646;8.560;2023-08-24T08:02:37;100525.94;;;24.44;69.77
34931;BME280;21134;49.646;8.560;2023-08-24T08:05:05;100511.28;;;24.41;70.44
34931;BME280;21134;49.646;8.560;2023-08-24T08:07:32;100496.56;;;24.39;69.84
34931;BME280;21134;49.646;8.560;2023-08-24T08:09:59;100486.25;;;24.51;68.49
34931;BME280;21134;49.646;8.560;2023-08-24T08:12:25;100467.59;;;24.57;68.57
34931;BME280;21134;49.646;8.560;2023-08-24T08:14:52;100449.19;;;24.73;68.78
34931;BME280;21134;49.646;8.560;2023-08-24T08:17:18;100422.16;;;24.87;68.61
34931;BME280;21134;49.646;8.560;2023-08-24T08:19:46;100404.16;;;25.10;68.14
34931;BME280;21134;49.646;8.560;2023-08-24T08:22:12;100403.97;;;25.27;66.71
34931;BME280;21134;49.646;8.560;2023-08-24T08:24:39;100394.28;;;25.42;66.25
34931;BME280;21134;49.646;8.560;2023-08-24T08:27:05;100381.66;;;25.61;63.97
34931;BME280;21134;49.646;8.560;2023-08-24T08:29:33;100374.69;;;25.74;63.72
34931;BME280;21134;49.646;8.560;2023-08-24T08:31:59;100367.72;;;25.88;63.35
34931;BME280;21134;49.646;8.560;2023-08-24T08:34:26;100361.53;;;25.89;62.72
34931;BME280;21134;49.646;8.560;2023-08-24T08:36:53;100357.75;;;25.93;61.66
34931;BME280;21134;49.646;8.560;2023-08-24T08:39:20;100358.28;;;25.85;61.80
34931;BME280;21134;49.646;8.560;2023-08-24T08:41:46;100372.44;;;25.83;61.84
34931;BME280;21134;49.646;8.560;2023-08-24T08:44:14;100378.44;;;25.85;62.08
34931;BME280;21134;49.646;8.560;2023-08-24T08:46:42;100378.66;;;25.94;60.86
34931;BME280;21134;49.646;8.560;2023-08-24T08:49:10;100382.63;;;26.13;60.00
34931;BME280;21134;49.646;8.560;2023-08-24T08:51:41;100378.47;;;26.36;60.00
34931;BME280;21134;49.646;8.560;2023-08-24T08:54:08;100374.97;;;26.61;58.50
34931;BME280;21134;49.646;8.560;2023-08-24T08:56:35;100374.56;;;26.67;57.94
34931;BME280;21134;49.646;8.560;2023-08-24T08:59:03;100377.28;;;26.78;58.29
34931;BME280;21134;49.646;8.560;2023-08-24T09:01:33;100379.50;;;27.08;58.24
34931;BME280;21134;49.646;8.560;2023-08-24T09:04:00;100376.06;;;27.56;58.33
34931;BME280;21134;49.646;8.560;2023-08-24T09:06:27;100369.13;;;27.79;57.74
34931;BME280;21134;49.646;8.560;2023-08-24T09:08:54;100366.28;;;27.93;55.82
34931;BME280;21134;49.646;8.560;2023-08-24T09:11:22;100357.97;;;27.75;54.40
34931;BME280;21134;49.646;8.560;2023-08-24T09:13:49;100370.34;;;27.62;55.74
34931;BME280;21134;49.646;8.560;2023-08-24T09:16:15;100369.06;;;27.68;53.66
34931;BME280;21134;49.646;8.560;2023-08-24T09:18:45;100367.81;;;27.85;53.60
34931;BME280;21134;49.646;8.560;2023-08-24T09:21:13;100355.53;;;28.08;52.52
34931;BME280;21134;49.646;8.560;2023-08-24T09:23:43;100341.25;;;28.34;50.20
34931;BME280;21134;49.646;8.560;2023-08-24T09:26:11;100329.16;;;28.54;50.71
34931;BME280;21134;49.646;8.560;2023-08-24T09:28:42;100321.38;;;28.64;50.19
34931;BME280;21134;49.646;8.560;2023-08-24T09:31:11;100307.91;;;28.89;49.17
34931;BME280;21134;49.646;8.560;2023-08-24T09:33:38;100296.28;;;29.03;50.33
34931;BME280;21134;49.646;8.560;2023-08-24T09:36:06;100287.09;;;29.30;48.55
34931;BME280;21134;49.646;8.560;2023-08-24T09:38:33;100281.81;;;29.51;47.12
34931;BME280;21134;49.646;8.560;2023-08-24T09:41:01;100286.81;;;29.54;47.40
34931;BME280;21134;49.646;8.560;2023-08-24T09:43:30;100292.25;;;29.73;47.11
34931;BME280;21134;49.646;8.560;2023-08-24T09:45:58;100283.00;;;29.79;47.92
34931;BME280;21134;49.646;8.560;2023-08-24T09:48:25;100295.56;;;29.96;46.73
34931;BME280;21134;49.646;8.560;2023-08-24T09:50:51;100292.25;;;29.94;46.63
34931;BME280;21134;49.646;8.560;2023-08-24T09:53:19;100285.41;;;29.92;46.38
34931;BME280;21134;49.646;8.560;2023-08-24T09:55:49;100283.56;;;29.82;47.23
34931;BME280;21134;49.646;8.560;2023-08-24T09:58:19;100279.72;;;29.96;46.27
34931;BME280;21134;49.646;8.560;2023-08-24T10:00:46;100277.81;;;29.98;46.26
34931;BME280;21134;49.646;8.560;2023-08-24T10:03:16;100277.19;;;30.16;45.92
34931;BME280;21134;49.646;8.560;2023-08-24T10:05:45;100271.66;;;30.19;45.53
34931;BME280;21134;49.646;8.560;2023-08-24T10:08:14;100263.94;;;30.37;45.19
34931;BME280;21134;49.646;8.560;2023-08-24T10:10:42;100267.19;;;30.50;45.06
34931;BME280;21134;49.646;8.560;2023-08-24T10:13:14;100258.31;;;30.61;44.36
34931;BME280;21134;49.646;8.560;2023-08-24T10:15:45;100257.13;;;30.84;44.02
34931;BME280;21134;49.646;8.560;2023-08-24T10:18:14;100258.22;;;31.01;44.37
34931;BME280;21134;49.646;8.560;2023-08-24T10:20:41;100259.63;;;31.15;43.29
34931;BME280;21134;49.646;8.560;2023-08-24T10:23:09;100263.09;;;31.25;43.63
34931;BME280;21134;49.646;8.560;2023-08-24T10:25:37;100255.31;;;31.33;43.29
34931;BME280;21134;49.646;8.560;2023-08-24T10:28:05;100252.66;;;31.43;43.07
34931;BME280;21134;49.646;8.560;2023-08-24T10:30:34;100253.63;;;31.52;42.39
34931;BME280;21134;49.646;8.560;2023-08-24T10:33:01;100259.44;;;31.55;41.99
34931;BME280;21134;49.646;8.560;2023-08-24T10:35:31;100253.75;;;31.60;42.47
34931;BME280;21134;49.646;8.560;2023-08-24T10:37:58;100257.91;;;31.72;41.06
34931;BME280;21134;49.646;8.560;2023-08-24T10:40:31;100247.84;;;31.76;41.72
34931;BME280;21134;49.646;8.560;2023-08-24T10:43:02;100241.97;;;31.91;42.33
34931;BME280;21134;49.646;8.560;2023-08-24T10:45:53;100229.88;;;32.16;42.01
34931;BME280;21134;49.646;8.560;2023-08-24T10:48:22;100226.00;;;32.11;42.64
34931;BME280;21134;49.646;8.560;2023-08-24T10:51:21;100217.88;;;32.40;41.85
34931;BME280;21134;49.646;8.560;2023-08-24T10:53:52;100206.50;;;32.57;41.06
34931;BME280;21134;49.646;8.560;2023-08-24T10:56:19;100199.03;;;32.71;38.96
34931;BME280;21134;49.646;8.560;2023-08-24T10:58:46;100201.72;;;32.79;40.73
34931;BME280;21134;49.646;8.560;2023-08-24T11:01:16;100201.03;;;32.95;39.21
34931;BME280;21134;49.646;8.560;2023-08-24T11:03:49;100201.34;;;33.09;38.25
34931;BME280;21134;49.646;8.560;2023-08-24T11:06:20;100189.81;;;33.19;37.86
34931;BME280;21134;49.646;8.560;2023-08-24T11:08:48;100186.69;;;33.23;39.30
34931;BME280;21134;49.646;8.560;2023-08-24T11:11:19;100191.09;;;33.15;39.18
34931;BME280;21134;49.646;8.560;2023-08-24T11:14:14;100193.13;;;33.21;39.78
34931;BME280;21134;49.646;8.560;2023-08-24T11:16:42;100188.59;;;32.95;38.92
34931;BME280;21134;49.646;8.560;2023-08-24T11:19:10;100187.41;;;33.07;39.25
34931;BME280;21134;49.646;8.560;2023-08-24T11:21:39;100188.31;;;33.16;39.30
34931;BME280;21134;49.646;8.560;2023-08-24T11:24:05;100184.88;;;33.24;39.06
34931;BME280;21134;49.646;8.560;2023-08-24T11:26:33;100181.59;;;33.30;38.41
34931;BME280;21134;49.646;8.560;2023-08-24T11:29:00;100172.44;;;33.24;38.61
34931;BME280;21134;49.646;8.560;2023-08-24T11:31:30;100167.53;;;33.38;38.69
34931;BME280;21134;49.646;8.560;2023-08-24T11:33:57;100162.59;;;33.43;38.40
34931;BME280;21134;49.646;8.560;2023-08-24T11:36:23;100157.38;;;33.51;38.61
34931;BME280;21134;49.646;8.560;2023-08-24T11:38:57;100159.03;;;33.52;38.73
34931;BME280;21134;49.646;8.560;2023-08-24T11:41:25;100158.53;;;33.56;37.86
34931;BME280;21134;49.646;8.560;2023-08-24T11:43:59;100152.25;;;33.58;38.43
34931;BME280;21134;49.646;8.560;2023-08-24T11:46:29;100150.13;;;33.69;38.13
34931;BME280;21134;49.646;8.560;2023-08-24T11:48:58;100141.28;;;33.52;38.96
34931;BME280;21134;49.646;8.560;2023-08-24T11:51:25;100147.66;;;33.68;38.28
34931;BME280;21134;49.646;8.560;2023-08-24T11:53:53;100139.19;;;33.64;37.60
34931;BME280;21134;49.646;8.560;2023-08-24T11:56:19;100133.88;;;33.64;37.19
34931;BME280;21134;49.646;8.560;2023-08-24T11:58:48;100127.34;;;33.50;38.35
34931;BME280;21134;49.646;8.560;2023-08-24T12:01:16;100125.78;;;33.40;38.36
34931;BME280;21134;49.646;8.560;2023-08-24T12:03:43;100124.63;;;33.42;38.58
34931;BME280;21134;49.646;8.560;2023-08-24T12:06:10;100126.56;;;33.58;36.89
34931;BME280;21134;49.646;8.560;2023-08-24T12:08:37;100128.91;;;33.69;38.18
34931;BME280;21134;49.646;8.560;2023-08-24T12:11:12;100124.81;;;33.83;38.44
34931;BME280;21134;49.646;8.560;2023-08-24T12:13:43;100121.53;;;33.89;37.62
34931;BME280;21134;49.646;8.560;2023-08-24T12:16:10;100121.75;;;34.04;36.33
34931;BME280;21134;49.646;8.560;2023-08-24T12:18:46;100120.56;;;33.98;37.07
34931;BME280;21134;49.646;8.560;2023-08-24T12:21:16;100118.03;;;33.89;37.08
34931;BME280;21134;49.646;8.560;2023-08-24T12:23:44;100106.44;;;33.90;37.18
34931;BME280;21134;49.646;8.560;2023-08-24T12:26:18;100104.28;;;33.93;36.09
34931;BME280;21134;49.646;8.560;2023-08-24T12:28:49;100096.13;;;33.95;36.58
34931;BME280;21134;49.646;8.560;2023-08-24T12:31:16;100089.34;;;34.00;37.33
34931;BME280;21134;49.646;8.560;2023-08-24T12:33:43;100085.56;;;34.03;37.55
34931;BME280;21134;49.646;8.560;2023-08-24T12:36:10;100082.38;;;33.99;37.82
34931;BME280;21134;49.646;8.560;2023-08-24T12:38:36;100060.19;;;34.09;37.83
34931;BME280;21134;49.646;8.560;2023-08-24T12:41:04;100057.88;;;34.06;36.98
34931;BME280;21134;49.646;8.560;2023-08-24T12:43:32;100064.28;;;33.95;37.68
34931;BME280;21134;49.646;8.560;2023-08-24T12:45:59;100068.28;;;33.99;38.17
34931;BME280;21134;49.646;8.560;2023-08-24T12:48:25;100064.69;;;34.08;37.17
34931;BME280;21134;49.646;8.560;2023-08-24T12:50:52;100065.19;;;34.12;38.34
34931;BME280;21134;49.646;8.560;2023-08-24T12:53:18;100070.81;;;34.09;38.29